createdAt,value
2022-12-05T00:01:24.093Z,29.85
2022-12-05T00:03:53.418Z,32.72
2022-12-05T00:06:22.140Z,33.58
2022-12-05T00:08:49.558Z,34.85
2022-12-05T00:11:22.621Z,36.17
2022-12-05T00:13:51.764Z,28.58
2022-12-05T00:16:21.655Z,38.88
2022-12-05T00:18:49.280Z,34.95
2022-12-05T00:21:21.870Z,33.75
2022-12-05T00:23:49.873Z,32.78
2022-12-05T00:26:17.275Z,30.73
2022-12-05T00:28:44.676Z,39.50
2022-12-05T00:31:16.435Z,37.17
2022-12-05T00:33:44.460Z,30.15
2022-12-05T00:36:23.617Z,37.25
2022-12-05T00:38:51.180Z,33.90
2022-12-05T00:41:21.408Z,35.75
2022-12-05T00:43:48.829Z,35.33
2022-12-05T00:46:19.301Z,30.08
2022-12-05T00:48:46.890Z,38.85
2022-12-05T00:51:23.259Z,33.97
2022-12-05T00:53:50.748Z,30.60
2022-12-05T00:56:21.308Z,33.03
2022-12-05T00:58:49.238Z,39.42
2022-12-05T01:01:20.147Z,33.55
2022-12-05T01:03:48.486Z,32.53
2022-12-05T01:06:15.966Z,32.28
2022-12-05T01:08:43.226Z,30.73
2022-12-05T01:11:14.109Z,36.10
2022-12-05T01:13:41.138Z,34.13
2022-12-05T01:16:15.205Z,31.67
2022-12-05T01:18:42.311Z,36.10
2022-12-05T01:21:09.811Z,32.10
2022-12-05T01:23:37.650Z,34.22
2022-12-05T01:26:15.237Z,36.17
2022-12-05T01:28:43.190Z,33.70
2022-12-05T01:31:21.417Z,33.67
2022-12-05T01:33:48.801Z,36.95
2022-12-05T01:36:16.237Z,33.90
2022-12-05T01:38:44.278Z,33.00
2022-12-05T01:41:15.699Z,40.63
2022-12-05T01:43:58.014Z,31.25
2022-12-05T01:46:26.905Z,35.65
2022-12-05T01:49:02.149Z,39.00
2022-12-05T01:51:30.666Z,32.28
2022-12-05T01:53:58.477Z,34.72
2022-12-05T01:56:25.867Z,37.55
2022-12-05T01:58:53.957Z,38.50
2022-12-05T02:01:21.210Z,36.35
2022-12-05T02:03:52.690Z,36.97
2022-12-05T02:06:20.530Z,36.83
2022-12-05T02:08:47.553Z,34.30
2022-12-05T02:11:14.736Z,31.90
2022-12-05T02:14:12.378Z,42.28
2022-12-05T02:16:53.790Z,39.78
2022-12-05T02:19:58.571Z,29.35
2022-12-05T02:22:34.627Z,35.42
2022-12-05T02:25:39.106Z,31.88
2022-12-05T02:28:27.595Z,37.05
2022-12-05T02:30:58.130Z,40.88
2022-12-05T02:33:46.204Z,36.90
2022-12-05T02:36:21.472Z,38.35
2022-12-05T02:39:00.673Z,38.00
2022-12-05T02:41:35.104Z,30.55
2022-12-05T02:44:04.714Z,37.75
2022-12-05T02:46:36.244Z,35.65
2022-12-05T02:49:08.381Z,36.10
2022-12-05T02:51:57.881Z,40.47
2022-12-05T02:54:29.772Z,32.33
2022-12-05T02:56:59.277Z,33.60
2022-12-05T02:59:26.276Z,36.17
2022-12-05T03:01:53.411Z,34.75
2022-12-05T03:04:24.138Z,34.40
2022-12-05T03:06:59.865Z,33.38
2022-12-05T03:09:56.503Z,38.20
2022-12-05T03:12:32.226Z,30.85
2022-12-05T03:15:05.645Z,32.08
2022-12-05T03:17:36.885Z,26.73
2022-12-05T03:20:09.213Z,33.33
2022-12-05T03:22:46.635Z,36.55
2022-12-05T03:25:13.923Z,31.23
2022-12-05T03:27:49.686Z,29.98
2022-12-05T03:30:19.162Z,33.28
2022-12-05T03:33:10.340Z,32.42
2022-12-05T03:35:54.625Z,34.00
2022-12-05T03:38:24.243Z,35.92
2022-12-05T03:41:01.579Z,31.50
2022-12-05T03:43:44.578Z,29.70
2022-12-05T03:46:17.639Z,35.78
2022-12-05T03:48:56.160Z,29.67
2022-12-05T03:51:28.424Z,28.73
2022-12-05T03:54:27.595Z,35.65
2022-12-05T03:57:02.343Z,32.97
2022-12-05T03:59:39.631Z,28.02
2022-12-05T04:02:27.261Z,29.20
2022-12-05T04:05:09.592Z,37.75
2022-12-05T04:07:40.424Z,34.40
2022-12-05T04:10:15.606Z,31.08
2022-12-05T04:12:44.293Z,28.27
2022-12-05T04:15:17.220Z,31.90
2022-12-05T04:17:57.016Z,29.17
2022-12-05T04:20:55.549Z,34.17
2022-12-05T04:23:23.043Z,34.70
2022-12-05T04:26:24.567Z,32.33
2022-12-05T04:29:09.369Z,29.83
2022-12-05T04:31:48.346Z,31.65
2022-12-05T04:34:16.742Z,29.52
2022-12-05T04:37:10.673Z,28.77
2022-12-05T04:39:47.437Z,33.88
2022-12-05T04:42:19.813Z,30.65
2022-12-05T04:44:52.917Z,30.38
2022-12-05T04:47:24.506Z,26.20
2022-12-05T04:49:54.107Z,26.40
2022-12-05T04:52:22.482Z,31.83
2022-12-05T04:55:13.401Z,31.02
2022-12-05T04:57:59.882Z,31.58
2022-12-05T05:00:29.782Z,27.50
2022-12-05T05:03:19.319Z,36.97
2022-12-05T05:05:49.589Z,28.35
2022-12-05T05:08:19.110Z,30.17
2022-12-05T05:11:13.047Z,28.25
2022-12-05T05:13:40.123Z,39.22
2022-12-05T05:16:07.812Z,34.90
2022-12-05T05:18:34.900Z,31.95
2022-12-05T05:21:03.000Z,35.13
2022-12-05T05:23:30.328Z,37.92
2022-12-05T05:25:57.507Z,29.67
2022-12-05T05:28:24.607Z,30.25
2022-12-05T05:30:51.674Z,35.90
2022-12-05T05:33:18.825Z,37.00
2022-12-05T05:35:45.894Z,36.20
2022-12-05T05:38:12.975Z,32.75
2022-12-05T05:40:40.062Z,34.70
2022-12-05T05:43:07.115Z,34.22
2022-12-05T05:45:34.205Z,37.17
2022-12-05T05:48:01.502Z,35.80
2022-12-05T05:50:28.977Z,32.63
2022-12-05T05:52:56.065Z,31.23
2022-12-05T05:55:23.166Z,29.55
2022-12-05T05:57:50.204Z,31.10
2022-12-05T06:00:17.572Z,36.35
2022-12-05T06:02:44.784Z,31.48
2022-12-05T06:05:12.367Z,35.58
2022-12-05T06:07:39.522Z,30.73
2022-12-05T06:10:07.280Z,34.80
2022-12-05T06:12:34.419Z,34.25
2022-12-05T06:15:02.041Z,31.02
2022-12-05T06:17:29.958Z,30.88
2022-12-05T06:19:57.413Z,34.20
2022-12-05T06:22:24.596Z,39.65
2022-12-05T06:24:51.711Z,36.22
2022-12-05T06:27:18.730Z,28.50
2022-12-05T06:29:45.772Z,31.52
2022-12-05T06:32:12.850Z,30.83
2022-12-05T06:34:39.815Z,36.67
2022-12-05T06:37:06.834Z,30.88
2022-12-05T06:39:33.834Z,32.72
2022-12-05T06:42:01.246Z,32.58
2022-12-05T06:44:29.063Z,32.97
2022-12-05T06:46:56.597Z,39.30
2022-12-05T06:49:31.674Z,35.75
2022-12-05T06:51:59.798Z,40.13
2022-12-05T06:54:27.001Z,31.17
2022-12-05T06:56:54.240Z,34.55
2022-12-05T06:59:21.326Z,33.33
2022-12-05T07:01:49.096Z,33.08
2022-12-05T07:04:24.181Z,36.53
2022-12-05T07:06:54.358Z,33.53
2022-12-05T07:09:45.710Z,32.15
2022-12-05T07:12:14.880Z,30.38
2022-12-05T07:14:50.390Z,25.58
2022-12-05T07:17:18.959Z,34.75
2022-12-05T07:19:49.619Z,35.83
2022-12-05T07:22:21.551Z,32.33
2022-12-05T07:24:50.955Z,32.22
2022-12-05T07:27:23.279Z,30.60
2022-12-05T07:29:54.248Z,28.17
2022-12-05T07:32:21.439Z,31.42
2022-12-05T07:34:53.476Z,28.27
2022-12-05T07:37:22.220Z,27.67
2022-12-05T07:39:49.389Z,28.52
2022-12-05T07:42:16.812Z,26.85
2022-12-05T07:44:43.916Z,30.67
2022-12-05T07:47:11.006Z,31.77
2022-12-05T07:49:38.066Z,28.55
2022-12-05T07:52:05.114Z,30.27
2022-12-05T07:54:33.194Z,26.98
2022-12-05T07:57:00.445Z,28.85
2022-12-05T07:59:27.830Z,26.17
2022-12-05T08:01:54.942Z,24.08
2022-12-05T08:04:22.140Z,29.92
2022-12-05T08:06:49.132Z,24.92
2022-12-05T08:09:16.270Z,26.63
2022-12-05T08:11:46.945Z,23.10
2022-12-05T08:14:16.646Z,24.35
2022-12-05T08:16:43.676Z,24.98
2022-12-05T08:19:13.445Z,25.30
2022-12-05T08:21:40.595Z,27.30
2022-12-05T08:24:08.268Z,28.45
2022-12-05T08:26:36.328Z,24.65
2022-12-05T08:29:08.628Z,24.02
2022-12-05T08:31:40.627Z,24.98
2022-12-05T08:34:07.736Z,22.02
2022-12-05T08:36:34.846Z,21.10
2022-12-05T08:39:05.256Z,19.35
2022-12-05T08:41:33.001Z,19.02
2022-12-05T08:44:05.029Z,19.75
2022-12-05T08:46:35.211Z,18.80
2022-12-05T08:49:03.906Z,18.42
2022-12-05T08:51:30.901Z,17.58
2022-12-05T08:53:57.962Z,21.80
2022-12-05T08:56:27.543Z,18.10
2022-12-05T08:58:59.816Z,17.85
2022-12-05T09:01:33.686Z,18.60
2022-12-05T09:04:05.029Z,17.30
2022-12-05T09:06:34.870Z,14.18
2022-12-05T09:09:05.711Z,15.27
2022-12-05T09:11:37.666Z,16.27
2022-12-05T09:14:05.256Z,14.07
2022-12-05T09:16:38.193Z,13.98
2022-12-05T09:21:33.945Z,12.38
2022-12-05T09:24:02.013Z,12.88
2022-12-05T09:26:30.124Z,18.92
2022-12-05T09:28:58.055Z,13.80
2022-12-05T09:31:30.935Z,12.70
2022-12-05T09:33:58.037Z,14.90
2022-12-05T09:36:27.603Z,12.98
2022-12-05T09:38:55.812Z,12.98
2022-12-05T09:41:45.736Z,12.13
2022-12-05T09:44:25.563Z,12.93
2022-12-05T09:46:59.927Z,11.70
2022-12-05T09:49:27.759Z,12.35
2022-12-05T09:51:55.820Z,10.73
2022-12-05T09:54:24.795Z,11.82
2022-12-05T09:56:53.318Z,12.48
2022-12-05T09:59:21.341Z,11.57
2022-12-05T10:01:48.259Z,12.38
2022-12-05T10:04:48.785Z,11.85
2022-12-05T10:07:26.145Z,12.25
2022-12-05T10:09:55.866Z,13.77
2022-12-05T10:12:50.086Z,9.95
2022-12-05T10:15:29.441Z,11.20
2022-12-05T10:18:38.430Z,10.70
2022-12-05T10:21:08.281Z,10.27
2022-12-05T10:24:00.054Z,15.90
2022-12-05T10:26:35.883Z,10.18
2022-12-05T10:29:17.937Z,8.07
2022-12-05T10:31:48.326Z,8.23
2022-12-05T10:34:29.684Z,5.70
2022-12-05T10:37:03.671Z,5.50
2022-12-05T10:39:30.989Z,5.88
2022-12-05T10:41:57.973Z,7.32
2022-12-05T10:44:25.124Z,6.43
2022-12-05T10:46:52.891Z,7.53
2022-12-05T10:49:21.024Z,6.68
2022-12-05T10:51:48.890Z,6.95
2022-12-05T10:54:22.153Z,8.35
2022-12-05T10:56:52.050Z,9.25
2022-12-05T10:59:25.793Z,8.30
2022-12-05T11:01:55.447Z,7.43
2022-12-05T11:04:31.883Z,6.93
2022-12-05T11:07:04.895Z,8.57
2022-12-05T11:09:39.100Z,8.80
2022-12-05T11:12:09.139Z,10.10
2022-12-05T11:14:36.335Z,10.65
2022-12-05T11:17:05.300Z,8.02
2022-12-05T11:19:37.648Z,7.35
2022-12-05T11:22:07.969Z,7.28
2022-12-05T11:24:39.109Z,6.32
2022-12-05T11:27:18.180Z,9.30
2022-12-05T11:30:02.134Z,8.45
2022-12-05T11:32:33.419Z,9.20
2022-12-05T11:35:08.249Z,7.47
2022-12-05T11:37:59.990Z,9.52
2022-12-05T11:40:49.830Z,9.15
2022-12-05T11:43:39.826Z,9.05
2022-12-05T11:46:39.213Z,8.43
2022-12-05T11:49:34.907Z,8.10
2022-12-05T11:52:24.307Z,9.35
2022-12-05T11:55:05.072Z,8.90
2022-12-05T11:57:52.680Z,11.57
2022-12-05T12:00:31.993Z,10.77
2022-12-05T12:03:16.553Z,7.35
2022-12-05T12:06:20.937Z,10.27
2022-12-05T12:09:33.749Z,8.15
2022-12-05T12:12:20.809Z,10.38
2022-12-05T12:15:15.368Z,6.70
2022-12-05T12:18:12.945Z,7.50
2022-12-05T12:21:05.376Z,10.40
2022-12-05T12:23:35.062Z,8.98
2022-12-05T12:26:12.340Z,7.80
2022-12-05T12:28:58.011Z,9.70
2022-12-05T12:31:32.328Z,9.63
2022-12-05T12:34:49.493Z,12.75
2022-12-05T12:37:53.889Z,9.93
2022-12-05T12:40:34.701Z,10.43
2022-12-05T12:46:54.211Z,9.00
2022-12-05T12:49:24.427Z,7.78
2022-12-05T12:51:55.021Z,8.15
2022-12-05T12:55:03.584Z,7.85
2022-12-05T12:57:34.638Z,7.03
2022-12-05T13:00:32.885Z,7.30
2022-12-05T13:03:11.984Z,7.05
2022-12-05T13:06:01.111Z,8.80
2022-12-05T13:09:03.826Z,7.20
2022-12-05T13:11:38.835Z,8.60
2022-12-05T13:14:12.996Z,6.70
2022-12-05T13:16:50.854Z,8.60
2022-12-05T13:19:39.023Z,9.40
2022-12-05T13:22:07.319Z,7.55
2022-12-05T13:24:35.282Z,6.63
2022-12-05T13:27:06.761Z,7.60
2022-12-05T13:29:41.154Z,7.15
2022-12-05T13:32:43.748Z,8.25
2022-12-05T13:35:14.324Z,7.78
2022-12-05T13:38:05.907Z,8.90
2022-12-05T13:41:08.196Z,8.65
2022-12-05T13:43:44.970Z,7.40
2022-12-05T13:46:26.166Z,9.02
2022-12-05T13:49:08.235Z,7.45
2022-12-05T13:51:42.436Z,9.60
2022-12-05T13:54:20.932Z,8.88
2022-12-05T13:57:02.326Z,6.43
2022-12-05T13:59:57.532Z,9.65
2022-12-05T14:02:46.920Z,9.45
2022-12-05T14:05:13.965Z,7.38
2022-12-05T14:07:43.107Z,10.35
2022-12-05T14:10:16.727Z,7.57
2022-12-05T14:12:58.672Z,5.82
2022-12-05T14:15:25.944Z,6.13
2022-12-05T14:18:01.212Z,7.53
2022-12-05T14:20:54.423Z,10.05
2022-12-05T14:23:55.010Z,6.45
2022-12-05T14:26:40.694Z,7.10
2022-12-05T14:29:27.878Z,6.88
2022-12-05T14:32:25.251Z,9.05
2022-12-05T14:35:01.196Z,7.97
2022-12-05T14:37:37.804Z,6.45
2022-12-05T14:40:18.182Z,7.18
2022-12-05T14:42:54.131Z,7.63
2022-12-05T14:45:32.999Z,10.07
2022-12-05T14:48:20.135Z,13.93
2022-12-05T14:50:49.916Z,10.60
2022-12-05T14:53:34.606Z,8.82
2022-12-05T14:56:12.098Z,6.20
2022-12-05T14:59:02.294Z,8.07
2022-12-05T15:01:40.483Z,6.20
2022-12-05T15:04:23.232Z,6.68
2022-12-05T15:06:55.689Z,8.38
2022-12-05T15:09:38.267Z,7.22
2022-12-05T15:12:12.267Z,8.57
2022-12-05T15:17:18.573Z,6.03
2022-12-05T15:19:53.153Z,8.05
2022-12-05T15:22:22.783Z,7.90
2022-12-05T15:24:50.095Z,6.28
2022-12-05T15:27:17.278Z,8.43
2022-12-05T15:29:44.417Z,8.52
2022-12-05T15:32:11.371Z,10.75
2022-12-05T15:35:14.071Z,7.50
2022-12-05T15:37:46.006Z,12.73
2022-12-05T15:40:20.778Z,8.70
2022-12-05T15:42:56.031Z,10.30
2022-12-05T15:45:30.951Z,8.82
2022-12-05T15:48:06.982Z,8.32
2022-12-05T15:50:41.441Z,7.10
2022-12-05T15:53:54.001Z,12.52
2022-12-05T15:56:39.076Z,12.35
2022-12-05T15:59:28.226Z,13.60
2022-12-05T16:02:05.535Z,9.10
2022-12-05T16:04:54.307Z,8.90
2022-12-05T16:07:24.130Z,7.65
2022-12-05T16:09:52.070Z,7.30
2022-12-05T16:12:33.223Z,8.57
2022-12-05T16:15:14.081Z,9.70
2022-12-05T16:17:54.011Z,8.23
2022-12-05T16:20:33.338Z,6.68
2022-12-05T16:23:04.576Z,8.57
2022-12-05T16:25:33.757Z,6.97
2022-12-05T16:28:03.855Z,6.60
2022-12-05T16:30:32.469Z,7.03
2022-12-05T16:33:08.723Z,9.82
2022-12-05T16:35:43.436Z,6.40
2022-12-05T16:38:17.770Z,6.70
2022-12-05T16:40:58.106Z,8.57
2022-12-05T16:43:44.097Z,5.78
2022-12-05T16:46:11.111Z,6.78
2022-12-05T16:48:40.053Z,9.25
2022-12-05T16:51:39.935Z,9.23
2022-12-05T16:54:07.917Z,8.57
2022-12-05T16:56:35.174Z,9.10
2022-12-05T16:59:09.708Z,8.52
2022-12-05T17:01:39.076Z,7.63
2022-12-05T17:04:11.080Z,7.82
2022-12-05T17:06:39.292Z,7.00
2022-12-05T17:09:06.358Z,7.47
2022-12-05T17:11:36.995Z,5.28
2022-12-05T17:14:04.671Z,9.63
2022-12-05T17:16:32.215Z,5.28
2022-12-05T17:18:59.394Z,6.32
2022-12-05T17:21:32.103Z,8.13
2022-12-05T17:23:59.948Z,15.57
2022-12-05T17:26:27.177Z,7.47
2022-12-05T17:28:54.458Z,6.25
2022-12-05T17:31:24.579Z,5.63
2022-12-05T17:33:54.297Z,5.40
2022-12-05T17:36:21.574Z,6.47
2022-12-05T17:38:49.331Z,6.85
2022-12-05T17:41:19.063Z,8.15
2022-12-05T17:43:46.730Z,10.65
2022-12-05T17:46:20.151Z,8.27
2022-12-05T17:48:48.187Z,9.73
2022-12-05T17:51:15.510Z,6.95
2022-12-05T17:53:44.613Z,7.55
2022-12-05T17:56:12.184Z,8.45
2022-12-05T17:58:39.505Z,8.50
2022-12-05T18:01:06.767Z,7.70
2022-12-05T18:03:34.099Z,6.35
2022-12-05T18:06:04.078Z,6.97
2022-12-05T18:08:31.330Z,6.00
2022-12-05T18:10:58.386Z,7.97
2022-12-05T18:13:25.424Z,6.68
2022-12-05T18:15:57.874Z,7.75
2022-12-05T18:18:27.508Z,6.88
2022-12-05T18:21:12.352Z,4.78
2022-12-05T18:23:40.392Z,7.65
2022-12-05T18:26:10.059Z,5.43
2022-12-05T18:28:38.659Z,5.68
2022-12-05T18:31:16.758Z,6.50
2022-12-05T18:33:45.372Z,6.60
2022-12-05T18:36:17.119Z,7.85
2022-12-05T18:38:50.821Z,7.43
2022-12-05T18:43:44.918Z,8.40
2022-12-05T18:46:12.084Z,5.43
2022-12-05T18:48:42.577Z,6.60
2022-12-05T18:51:16.109Z,7.38
2022-12-05T18:53:51.933Z,6.82
2022-12-05T18:56:28.626Z,4.82
2022-12-05T18:58:58.171Z,9.30
2022-12-05T19:01:26.507Z,5.20
2022-12-05T19:03:54.322Z,5.20
2022-12-05T19:06:25.243Z,8.32
2022-12-05T19:08:56.720Z,5.10
2022-12-05T19:11:26.318Z,4.78
2022-12-05T19:13:57.909Z,5.97
2022-12-05T19:16:25.702Z,5.53
2022-12-05T19:18:58.318Z,5.40
2022-12-05T19:21:27.381Z,5.63
2022-12-05T19:23:55.406Z,5.22
2022-12-05T19:26:23.276Z,6.10
2022-12-05T19:28:50.777Z,4.90
2022-12-05T19:31:20.928Z,5.60
2022-12-05T19:33:50.703Z,5.03
2022-12-05T19:36:21.122Z,8.27
2022-12-05T19:38:51.058Z,5.40
2022-12-05T19:41:24.854Z,6.00
2022-12-05T19:46:30.315Z,8.30
2022-12-05T19:49:00.116Z,6.93
2022-12-05T19:51:27.592Z,9.45
2022-12-05T19:53:54.784Z,6.75
2022-12-05T19:56:26.626Z,6.13
2022-12-05T19:58:56.074Z,10.50
2022-12-05T20:01:24.816Z,5.82
2022-12-05T20:04:03.703Z,6.55
2022-12-05T20:06:37.828Z,6.35
2022-12-05T20:09:06.258Z,7.88
2022-12-05T20:11:33.742Z,6.57
2022-12-05T20:14:02.341Z,7.47
2022-12-05T20:16:29.756Z,7.93
2022-12-05T20:18:59.230Z,8.63
2022-12-05T20:21:28.748Z,8.40
2022-12-05T20:23:56.137Z,6.70
2022-12-05T20:26:29.149Z,6.50
2022-12-05T20:28:58.560Z,8.10
2022-12-05T20:31:34.767Z,6.30
2022-12-05T20:34:03.793Z,7.00
2022-12-05T20:36:33.221Z,9.50
2022-12-05T20:39:03.706Z,8.65
2022-12-05T20:41:31.420Z,7.47
2022-12-05T20:44:01.354Z,5.57
2022-12-05T20:46:29.206Z,7.07
2022-12-05T20:48:56.630Z,5.57
2022-12-05T20:51:29.538Z,5.55
2022-12-05T20:53:58.737Z,6.68
2022-12-05T20:56:30.490Z,5.75
2022-12-05T20:59:01.390Z,6.93
2022-12-05T21:01:31.042Z,7.97
2022-12-05T21:03:59.093Z,6.85
2022-12-05T21:06:32.373Z,6.55
2022-12-05T21:09:00.589Z,7.38
2022-12-05T21:11:29.046Z,8.50
2022-12-05T21:13:57.934Z,6.78
2022-12-05T21:16:25.071Z,9.57
2022-12-05T21:18:52.617Z,6.50
2022-12-05T21:21:22.719Z,8.85
2022-12-05T21:23:58.097Z,6.53
2022-12-05T21:26:27.356Z,5.80
2022-12-05T21:28:54.903Z,6.57
2022-12-05T21:31:51.685Z,7.43
2022-12-05T21:34:21.064Z,7.88
2022-12-05T21:36:48.585Z,5.70
2022-12-05T21:39:15.724Z,4.22
2022-12-05T21:41:42.883Z,5.57
2022-12-05T21:44:09.979Z,5.35
2022-12-05T21:46:36.974Z,4.40
2022-12-05T21:49:04.406Z,8.27
2022-12-05T21:51:31.363Z,3.75
2022-12-05T21:53:58.453Z,6.35
2022-12-05T21:56:25.629Z,3.92
2022-12-05T21:58:53.102Z,6.20
2022-12-05T22:01:23.311Z,3.97
2022-12-05T22:03:59.269Z,7.45
2022-12-05T22:06:26.359Z,6.97
2022-12-05T22:08:54.609Z,6.50
2022-12-05T22:11:23.350Z,5.57
2022-12-05T22:13:51.329Z,5.20
2022-12-05T22:16:19.128Z,5.55
2022-12-05T22:18:46.646Z,5.20
2022-12-05T22:21:21.104Z,8.82
2022-12-05T22:23:49.382Z,7.25
2022-12-05T22:26:19.470Z,5.65
2022-12-05T22:28:47.147Z,8.20
2022-12-05T22:31:16.288Z,8.63
2022-12-05T22:33:44.720Z,5.93
2022-12-05T22:36:14.349Z,9.40
2022-12-05T22:38:46.852Z,6.50
2022-12-05T22:41:19.120Z,6.55
2022-12-05T22:43:47.697Z,6.43
2022-12-05T22:46:17.878Z,7.60
2022-12-05T22:48:46.706Z,6.20
2022-12-05T22:51:14.347Z,6.50
2022-12-05T22:53:42.334Z,8.05
2022-12-05T22:56:14.406Z,4.80
2022-12-05T22:58:42.779Z,12.00
2022-12-05T23:01:12.864Z,6.72
2022-12-05T23:03:41.000Z,7.63
2022-12-05T23:06:11.779Z,5.72
2022-12-05T23:08:40.710Z,6.28
2022-12-05T23:11:08.680Z,6.32
2022-12-05T23:13:36.960Z,6.07
2022-12-05T23:16:14.600Z,5.43
2022-12-05T23:18:48.800Z,4.95
2022-12-05T23:21:19.303Z,5.57
2022-12-05T23:23:48.158Z,6.60
2022-12-05T23:26:16.049Z,8.15
2022-12-05T23:28:43.499Z,7.57
2022-12-05T23:31:12.236Z,3.13
2022-12-05T23:33:39.986Z,4.50
2022-12-05T23:36:07.802Z,5.70
2022-12-05T23:38:36.355Z,6.43
2022-12-05T23:41:07.423Z,4.45
2022-12-05T23:43:35.978Z,4.63
2022-12-05T23:46:05.196Z,9.18
2022-12-05T23:48:33.028Z,6.68
2022-12-05T23:51:04.575Z,8.07
2022-12-05T23:53:34.946Z,5.78
2022-12-05T23:56:05.247Z,8.80
2022-12-05T23:58:33.147Z,5.78
